T Rex — V7KA2 — position and weather

sailwx.info

Track history (hours):
 
Tides and Currents Weather Stations Pressure Air Temp Water Temp Dewpoint Dewpoint Depression Visibility Wind Speed Wind Dir Waves Ship Positions

T Rex

Last reported at 2017-Oct-17 08:19 UTC. Time now 2017-Oct-18 06:06 UTC.
Position N 25°26' W 079°30'.

Length 183 m; draft 8.6 m.

Type: Tanker. MMSI: 538002594.

Date/timePositionNaut miles runAvg speedWind from/ knotsBaromVisibWave heightAir tempDewpointWater temp
2017-Oct-17 08:19N 25°26' W 079°30'311.0
2017-Oct-17 08:00N 25°30' W 079°30'611.1
2017-Oct-17 07:30N 25°35' W 079°29'511.0
2017-Oct-17 07:00N 25°41' W 079°29'510.9
2017-Oct-17 06:30N 25°46' W 079°28'510.9
2017-Oct-17 06:00N 25°52' W 079°28'611.1
2017-Oct-17 05:30N 25°57' W 079°27'611.1
2017-Oct-17 04:59N 26°03' W 079°26'611.5
2017-Oct-17 04:30N 26°08' W 079°25'611.5
2017-Oct-17 04:00N 26°14' W 079°25'3311.3
2017-Oct-17 01:06N 26°47' W 079°22'1 9.7
2017-Oct-17 00:58N 26°48' W 079°22'612.0
2017-Oct-17 00:30N 26°54' W 079°22'611.4
2017-Oct-17 00:00N 26°59' W 079°21'611.2
2017-Oct-16 23:30N 27°05' W 079°21'  
2017-Oct-12 20:44N 39°31' W 073°11'312.9
2017-Oct-12 20:29N 39°34' W 073°09'713.3
2017-Oct-12 19:57N 39°40' W 073°05'612.5
2017-Oct-12 19:30N 39°45' W 073°08'711.8
2017-Oct-12 18:56N 39°51' W 073°13'511.8
2017-Oct-12 18:29N 39°55' W 073°17'611.4
2017-Oct-12 18:00N 39°59' W 073°22'611.5
2017-Oct-12 17:31N 40°04' W 073°26'811.5
2017-Oct-12 16:48N 40°10' W 073°32'1911.6
2017-Oct-12 15:08N 40°25' W 073°48'210.0
2017-Oct-12 14:58N 40°27' W 073°49'5 9.6
2017-Oct-12 14:28N 40°29' W 073°55'510.5
2017-Oct-12 14:00N 40°31' W 074°01'611.3
2017-Oct-12 13:30N 40°37' W 074°03'2 3.3
2017-Oct-12 12:58N 40°38' W 074°04'0 0.0
2017-Oct-12 12:28N 40°38' W 074°04'0 0.1
2017-Oct-12 11:55N 40°38' W 074°04'0 0.0
2017-Oct-12 11:28N 40°38' W 074°04'0 0.0
2017-Oct-12 10:58N 40°38' W 074°04'0 0.0
2017-Oct-12 10:28N 40°38' W 074°04'0 0.0
2017-Oct-12 09:58N 40°38' W 074°04'0 0.0
2017-Oct-12 09:28N 40°38' W 074°04'0 0.0
2017-Oct-12 08:58N 40°38' W 074°04'0 0.0
2017-Oct-12 08:25N 40°38' W 074°04'0 0.1
2017-Oct-12 07:58N 40°38' W 074°04'0 0.2
2017-Oct-12 07:25N 40°38' W 074°04'0 0.3
2017-Oct-12 06:58N 40°39' W 074°04'0 0.1
2017-Oct-12 06:28N 40°39' W 074°04'0 0.0
2017-Oct-12 05:52N 40°39' W 074°04'0 0.0
2017-Oct-12 05:25N 40°39' W 074°04'0 0.0
2017-Oct-12 04:58N 40°39' W 074°04'0 0.0
2017-Oct-12 04:25N 40°39' W 074°04'0 0.0
2017-Oct-12 03:58N 40°39' W 074°04'0 0.2
2017-Oct-12 03:30N 40°39' W 074°04'1 2.7
2017-Oct-12 03:00N 40°37' W 074°03'5 9.7
2017-Oct-12 02:30N 40°33' W 074°01'611.5
2017-Oct-12 02:00N 40°29' W 073°55'2 4.3
2017-Oct-12 01:29N 40°28' W 073°57'4 8.3
2017-Oct-12 01:00N 40°29' W 074°02'5 9.8
2017-Oct-12 00:27N 40°30' W 074°09'4 8.3
2017-Oct-12 00:00N 40°30' W 074°14'3 5.9
2017-Oct-11 23:29N 40°32' W 074°15'1 2.3
2017-Oct-11 23:00N 40°33' W 074°14'0 0.0
2017-Oct-11 22:29N 40°33' W 074°14'0 0.0
2017-Oct-10 10:07N 40°33' W 074°14'0 0.0
2017-Oct-10 09:59N 40°33' W 074°14'1 1.8
2017-Oct-10 09:30N 40°33' W 074°15'3 5.0
2017-Oct-10 08:50N 40°29' W 074°15'2 6.5
2017-Oct-10 08:28N 40°30' W 074°12'4 9.6
2017-Oct-10 08:00N 40°29' W 074°06'4 8.8
2017-Oct-10 07:30N 40°29' W 074°01'4 7.9
2017-Oct-10 07:00N 40°27' W 073°56'5 9.1
2017-Oct-10 06:30N 40°27' W 073°50'3 5.3
2017-Oct-10 06:00N 40°28' W 073°47'1 2.1
2017-Oct-10 05:29N 40°28' W 073°45'3 6.7
2017-Oct-10 04:59N 40°30' W 073°42'1 1.2
2017-Oct-10 04:27N 40°30' W 073°41'0 0.0
2017-Oct-10 02:57N 40°30' W 073°41'0 0.0
2017-Oct-09 22:15N 40°30' W 073°41'0 0.0
2017-Oct-09 21:45N 40°30' W 073°41'0 0.0
2017-Oct-09 21:21N 40°30' W 073°41'0 0.0
2017-Oct-09 20:21N 40°30' W 073°41'0 0.0
2017-Oct-09 20:00N 40°30' W 073°41'0 0.0
2017-Oct-09 19:30N 40°30' W 073°41'0 0.1
2017-Oct-09 19:00N 40°30' W 073°41'0 0.0
2017-Oct-09 18:27N 40°30' W 073°41'0 0.0
2017-Oct-09 17:48N 40°30' W 073°41'0 0.0
2017-Oct-09 17:26N 40°30' W 073°41'0 0.0
2017-Oct-09 16:06N 40°30' W 073°41'0 0.0
2017-Oct-09 13:18N 40°30' W 073°41'0 0.0
2017-Oct-09 12:54N 40°30' W 073°41'0 0.0
2017-Oct-09 12:29N 40°30' W 073°41'0 0.0
2017-Oct-09 12:00N 40°30' W 073°41'0 0.0
2017-Oct-09 11:29N 40°30' W 073°41'0 0.0
2017-Oct-09 10:53N 40°30' W 073°41'0 0.0
2017-Oct-09 10:30N 40°30' W 073°41'0 0.0
2017-Oct-09 09:59N 40°30' W 073°41'0 0.0
2017-Oct-09 09:26N 40°30' W 073°41'0 0.1
2017-Oct-09 08:59N 40°30' W 073°41'0 0.0
2017-Oct-09 08:26N 40°30' W 073°41'0 0.0
2017-Oct-09 08:00N 40°30' W 073°41'0 0.0
2017-Oct-09 07:29N 40°30' W 073°41'0 0.0
2017-Oct-09 06:56N 40°30' W 073°41'0 0.0
2017-Oct-09 06:29N 40°30' W 073°41'0 0.0
2017-Oct-09 05:59N 40°30' W 073°41'0 0.1
2017-Oct-09 05:26N 40°30' W 073°41'0 0.0
2017-Oct-09 04:56N 40°30' W 073°41'0 0.0
2017-Oct-09 04:26N 40°30' W 073°41'0 0.0
2017-Oct-09 03:39N 40°30' W 073°41'0 0.0
2017-Oct-09 03:15N 40°30' W 073°41'0 0.0
2017-Oct-09 02:50N 40°30' W 073°41'0 0.0
2017-Oct-09 02:30N 40°30' W 073°41'0 0.0
2017-Oct-09 02:00N 40°30' W 073°41'0 0.0
2017-Oct-09 01:17N 40°30' W 073°41'0 0.0
2017-Oct-09 00:59N 40°30' W 073°41'0 0.0
2017-Oct-09 00:29N 40°30' W 073°41'0 0.0
2017-Oct-08 23:17N 40°30' W 073°41'0 0.0
2017-Oct-08 22:59N 40°30' W 073°41'0 0.0
2017-Oct-08 22:29N 40°30' W 073°41'0 0.0
2017-Oct-08 21:59N 40°30' W 073°41'0 0.0
2017-Oct-08 21:29N 40°30' W 073°41'0 0.1
2017-Oct-08 20:59N 40°30' W 073°41'0 0.1
2017-Oct-08 20:29N 40°30' W 073°41'0 0.0
2017-Oct-08 19:59N 40°30' W 073°41'0 0.0
2017-Oct-08 19:29N 40°30' W 073°41'0 0.0
2017-Oct-08 18:59N 40°30' W 073°41'0 0.0
2017-Oct-08 18:29N 40°30' W 073°41'0 0.0
2017-Oct-08 17:47N 40°30' W 073°41'0 0.0
2017-Oct-08 17:29N 40°30' W 073°41'0 0.0
2017-Oct-08 16:11N 40°30' W 073°41'0 0.0
2017-Oct-08 15:47N 40°30' W 073°41'0 0.0
2017-Oct-08 15:29N 40°30' W 073°41'0 0.0
2017-Oct-08 14:56N 40°30' W 073°41'0 0.0
2017-Oct-08 14:11N 40°30' W 073°41'0 0.0
2017-Oct-08 13:53N 40°30' W 073°41'0 0.0
2017-Oct-08 13:26N 40°30' W 073°41'0 0.0
2017-Oct-08 12:59N 40°30' W 073°41'0 0.0
2017-Oct-08 12:29N 40°30' W 073°41'0 0.0
2017-Oct-08 11:59N 40°30' W 073°41'0 0.0
2017-Oct-08 11:29N 40°30' W 073°41'0 0.0
2017-Oct-08 09:23N 40°30' W 073°41'0 0.0
2017-Oct-08 08:59N 40°30' W 073°41'0 0.0
2017-Oct-08 08:29N 40°30' W 073°41'0 0.0
2017-Oct-08 07:59N 40°30' W 073°41'0 0.0
2017-Oct-08 07:29N 40°30' W 073°41'0 0.0
2017-Oct-08 06:59N 40°30' W 073°41'0 0.0
2017-Oct-08 06:29N 40°30' W 073°41'0 0.0
2017-Oct-08 05:59N 40°30' W 073°41'0 0.0
2017-Oct-08 05:29N 40°30' W 073°41'0 0.0
2017-Oct-08 04:56N 40°30' W 073°41'0 0.0
2017-Oct-08 04:27N 40°30' W 073°41'0 0.0
2017-Oct-08 03:59N 40°30' W 073°41'0 0.0
2017-Oct-08 03:29N 40°30' W 073°41'0 0.0
2017-Oct-08 02:53N 40°30' W 073°41'0 0.0
2017-Oct-08 02:30N 40°30' W 073°41'0 0.0
2017-Oct-08 01:59N 40°30' W 073°41'0 0.0
2017-Oct-08 01:27N 40°30' W 073°41'0 0.0
2017-Oct-08 01:00N 40°30' W 073°41'0 0.0
2017-Oct-08 00:30N 40°30' W 073°41'0 0.0
2017-Oct-08 00:00N 40°30' W 073°41'0 0.0
2017-Oct-07 23:30N 40°30' W 073°41'0 0.0
2017-Oct-07 22:59N 40°30' W 073°41'0 0.0
2017-Oct-07 22:30N 40°30' W 073°41'0 0.0
2017-Oct-07 22:00N 40°30' W 073°41'0 0.0
2017-Oct-07 21:30N 40°30' W 073°41'0 0.0
2017-Oct-07 21:00N 40°30' W 073°41'0 0.0
2017-Oct-07 20:30N 40°30' W 073°41'1 1.2
2017-Oct-07 19:57N 40°30' W 073°42'511.9
2017-Oct-07 19:30N 40°28' W 073°48'5 9.9
2017-Oct-07 19:00N 40°27' W 073°55'510.9
2017-Oct-07 18:30N 40°29' W 074°01'710.7
2017-Oct-07 17:51N 40°30' W 074°10'4 4.7
2017-Oct-07 16:56N 40°32' W 074°15'0 0.3
2017-Oct-07 16:30N 40°32' W 074°15'  
Track history (hours):
 
Tides and Currents Weather Stations Pressure Air Temp Water Temp Dewpoint Dewpoint Depression Visibility Wind Speed Wind Dir Waves Ship Positions

T Rex

Last reported at 2017-Oct-17 08:19 UTC. Time now 2017-Oct-18 06:06 UTC.
Position N 25°26' W 079°30'.

Length 183 m; draft 8.6 m.

Type: Tanker. MMSI: 538002594.

Date/timePositionNaut miles runAvg speedWind from/ knotsBaromVisibWave heightAir tempDewpointWater temp
2017-Oct-17 08:19N 25°26' W 079°30'311.0
2017-Oct-17 08:00N 25°30' W 079°30'611.1
2017-Oct-17 07:30N 25°35' W 079°29'511.0
2017-Oct-17 07:00N 25°41' W 079°29'510.9
2017-Oct-17 06:30N 25°46' W 079°28'510.9
2017-Oct-17 06:00N 25°52' W 079°28'611.1
2017-Oct-17 05:30N 25°57' W 079°27'611.1
2017-Oct-17 04:59N 26°03' W 079°26'611.5
2017-Oct-17 04:30N 26°08' W 079°25'611.5
2017-Oct-17 04:00N 26°14' W 079°25'3311.3
2017-Oct-17 01:06N 26°47' W 079°22'1 9.7
2017-Oct-17 00:58N 26°48' W 079°22'612.0
2017-Oct-17 00:30N 26°54' W 079°22'611.4
2017-Oct-17 00:00N 26°59' W 079°21'611.2
2017-Oct-16 23:30N 27°05' W 079°21'  
2017-Oct-12 20:44N 39°31' W 073°11'312.9
2017-Oct-12 20:29N 39°34' W 073°09'713.3
2017-Oct-12 19:57N 39°40' W 073°05'612.5
2017-Oct-12 19:30N 39°45' W 073°08'711.8
2017-Oct-12 18:56N 39°51' W 073°13'511.8
2017-Oct-12 18:29N 39°55' W 073°17'611.4
2017-Oct-12 18:00N 39°59' W 073°22'611.5
2017-Oct-12 17:31N 40°04' W 073°26'811.5
2017-Oct-12 16:48N 40°10' W 073°32'1911.6
2017-Oct-12 15:08N 40°25' W 073°48'210.0
2017-Oct-12 14:58N 40°27' W 073°49'5 9.6
2017-Oct-12 14:28N 40°29' W 073°55'510.5
2017-Oct-12 14:00N 40°31' W 074°01'611.3
2017-Oct-12 13:30N 40°37' W 074°03'2 3.3
2017-Oct-12 12:58N 40°38' W 074°04'0 0.0
2017-Oct-12 12:28N 40°38' W 074°04'0 0.1
2017-Oct-12 11:55N 40°38' W 074°04'0 0.0
2017-Oct-12 11:28N 40°38' W 074°04'0 0.0
2017-Oct-12 10:58N 40°38' W 074°04'0 0.0
2017-Oct-12 10:28N 40°38' W 074°04'0 0.0
2017-Oct-12 09:58N 40°38' W 074°04'0 0.0
2017-Oct-12 09:28N 40°38' W 074°04'0 0.0
2017-Oct-12 08:58N 40°38' W 074°04'0 0.0
2017-Oct-12 08:25N 40°38' W 074°04'0 0.1
2017-Oct-12 07:58N 40°38' W 074°04'0 0.2
2017-Oct-12 07:25N 40°38' W 074°04'0 0.3
2017-Oct-12 06:58N 40°39' W 074°04'0 0.1
2017-Oct-12 06:28N 40°39' W 074°04'0 0.0
2017-Oct-12 05:52N 40°39' W 074°04'0 0.0
2017-Oct-12 05:25N 40°39' W 074°04'0 0.0
2017-Oct-12 04:58N 40°39' W 074°04'0 0.0
2017-Oct-12 04:25N 40°39' W 074°04'0 0.0
2017-Oct-12 03:58N 40°39' W 074°04'0 0.2
2017-Oct-12 03:30N 40°39' W 074°04'1 2.7
2017-Oct-12 03:00N 40°37' W 074°03'5 9.7
2017-Oct-12 02:30N 40°33' W 074°01'611.5
2017-Oct-12 02:00N 40°29' W 073°55'2 4.3
2017-Oct-12 01:29N 40°28' W 073°57'4 8.3
2017-Oct-12 01:00N 40°29' W 074°02'5 9.8
2017-Oct-12 00:27N 40°30' W 074°09'4 8.3
2017-Oct-12 00:00N 40°30' W 074°14'3 5.9
2017-Oct-11 23:29N 40°32' W 074°15'1 2.3
2017-Oct-11 23:00N 40°33' W 074°14'0 0.0
2017-Oct-11 22:29N 40°33' W 074°14'0 0.0
2017-Oct-10 10:07N 40°33' W 074°14'0 0.0
2017-Oct-10 09:59N 40°33' W 074°14'1 1.8
2017-Oct-10 09:30N 40°33' W 074°15'3 5.0
2017-Oct-10 08:50N 40°29' W 074°15'2 6.5
2017-Oct-10 08:28N 40°30' W 074°12'4 9.6
2017-Oct-10 08:00N 40°29' W 074°06'4 8.8
2017-Oct-10 07:30N 40°29' W 074°01'4 7.9
2017-Oct-10 07:00N 40°27' W 073°56'5 9.1
2017-Oct-10 06:30N 40°27' W 073°50'3 5.3
2017-Oct-10 06:00N 40°28' W 073°47'1 2.1
2017-Oct-10 05:29N 40°28' W 073°45'3 6.7
2017-Oct-10 04:59N 40°30' W 073°42'1 1.2
2017-Oct-10 04:27N 40°30' W 073°41'0 0.0
2017-Oct-10 02:57N 40°30' W 073°41'0 0.0
2017-Oct-09 22:15N 40°30' W 073°41'0 0.0
2017-Oct-09 21:45N 40°30' W 073°41'0 0.0
2017-Oct-09 21:21N 40°30' W 073°41'0 0.0
2017-Oct-09 20:21N 40°30' W 073°41'0 0.0
2017-Oct-09 20:00N 40°30' W 073°41'0 0.0
2017-Oct-09 19:30N 40°30' W 073°41'0 0.1
2017-Oct-09 19:00N 40°30' W 073°41'0 0.0
2017-Oct-09 18:27N 40°30' W 073°41'0 0.0
2017-Oct-09 17:48N 40°30' W 073°41'0 0.0
2017-Oct-09 17:26N 40°30' W 073°41'0 0.0
2017-Oct-09 16:06N 40°30' W 073°41'0 0.0
2017-Oct-09 13:18N 40°30' W 073°41'0 0.0
2017-Oct-09 12:54N 40°30' W 073°41'0 0.0
2017-Oct-09 12:29N 40°30' W 073°41'0 0.0
2017-Oct-09 12:00N 40°30' W 073°41'0 0.0
2017-Oct-09 11:29N 40°30' W 073°41'0 0.0
2017-Oct-09 10:53N 40°30' W 073°41'0 0.0
2017-Oct-09 10:30N 40°30' W 073°41'0 0.0
2017-Oct-09 09:59N 40°30' W 073°41'0 0.0
2017-Oct-09 09:26N 40°30' W 073°41'0 0.1
2017-Oct-09 08:59N 40°30' W 073°41'0 0.0
2017-Oct-09 08:26N 40°30' W 073°41'0 0.0
2017-Oct-09 08:00N 40°30' W 073°41'0 0.0
2017-Oct-09 07:29N 40°30' W 073°41'0 0.0
2017-Oct-09 06:56N 40°30' W 073°41'0 0.0
2017-Oct-09 06:29N 40°30' W 073°41'0 0.0
2017-Oct-09 05:59N 40°30' W 073°41'0 0.1
2017-Oct-09 05:26N 40°30' W 073°41'0 0.0
2017-Oct-09 04:56N 40°30' W 073°41'0 0.0
2017-Oct-09 04:26N 40°30' W 073°41'0 0.0
2017-Oct-09 03:39N 40°30' W 073°41'0 0.0
2017-Oct-09 03:15N 40°30' W 073°41'0 0.0
2017-Oct-09 02:50N 40°30' W 073°41'0 0.0
2017-Oct-09 02:30N 40°30' W 073°41'0 0.0
2017-Oct-09 02:00N 40°30' W 073°41'0 0.0
2017-Oct-09 01:17N 40°30' W 073°41'0 0.0
2017-Oct-09 00:59N 40°30' W 073°41'0 0.0
2017-Oct-09 00:29N 40°30' W 073°41'0 0.0
2017-Oct-08 23:17N 40°30' W 073°41'0 0.0
2017-Oct-08 22:59N 40°30' W 073°41'0 0.0
2017-Oct-08 22:29N 40°30' W 073°41'0 0.0
2017-Oct-08 21:59N 40°30' W 073°41'0 0.0
2017-Oct-08 21:29N 40°30' W 073°41'0 0.1
2017-Oct-08 20:59N 40°30' W 073°41'0 0.1
2017-Oct-08 20:29N 40°30' W 073°41'0 0.0
2017-Oct-08 19:59N 40°30' W 073°41'0 0.0
2017-Oct-08 19:29N 40°30' W 073°41'0 0.0
2017-Oct-08 18:59N 40°30' W 073°41'0 0.0
2017-Oct-08 18:29N 40°30' W 073°41'0 0.0
2017-Oct-08 17:47N 40°30' W 073°41'0 0.0
2017-Oct-08 17:29N 40°30' W 073°41'0 0.0
2017-Oct-08 16:11N 40°30' W 073°41'0 0.0
2017-Oct-08 15:47N 40°30' W 073°41'0 0.0
2017-Oct-08 15:29N 40°30' W 073°41'0 0.0
2017-Oct-08 14:56N 40°30' W 073°41'0 0.0
2017-Oct-08 14:11N 40°30' W 073°41'0 0.0
2017-Oct-08 13:53N 40°30' W 073°41'0 0.0
2017-Oct-08 13:26N 40°30' W 073°41'0 0.0
2017-Oct-08 12:59N 40°30' W 073°41'0 0.0
2017-Oct-08 12:29N 40°30' W 073°41'0 0.0
2017-Oct-08 11:59N 40°30' W 073°41'0 0.0
2017-Oct-08 11:29N 40°30' W 073°41'0 0.0
2017-Oct-08 09:23N 40°30' W 073°41'0 0.0
2017-Oct-08 08:59N 40°30' W 073°41'0 0.0
2017-Oct-08 08:29N 40°30' W 073°41'0 0.0
2017-Oct-08 07:59N 40°30' W 073°41'0 0.0
2017-Oct-08 07:29N 40°30' W 073°41'0 0.0
2017-Oct-08 06:59N 40°30' W 073°41'0 0.0
2017-Oct-08 06:29N 40°30' W 073°41'0 0.0
2017-Oct-08 05:59N 40°30' W 073°41'0 0.0
2017-Oct-08 05:29N 40°30' W 073°41'0 0.0
2017-Oct-08 04:56N 40°30' W 073°41'0 0.0
2017-Oct-08 04:27N 40°30' W 073°41'0 0.0
2017-Oct-08 03:59N 40°30' W 073°41'0 0.0
2017-Oct-08 03:29N 40°30' W 073°41'0 0.0
2017-Oct-08 02:53N 40°30' W 073°41'0 0.0
2017-Oct-08 02:30N 40°30' W 073°41'0 0.0
2017-Oct-08 01:59N 40°30' W 073°41'0 0.0
2017-Oct-08 01:27N 40°30' W 073°41'0 0.0
2017-Oct-08 01:00N 40°30' W 073°41'0 0.0
2017-Oct-08 00:30N 40°30' W 073°41'0 0.0
2017-Oct-08 00:00N 40°30' W 073°41'0 0.0
2017-Oct-07 23:30N 40°30' W 073°41'0 0.0
2017-Oct-07 22:59N 40°30' W 073°41'0 0.0
2017-Oct-07 22:30N 40°30' W 073°41'0 0.0
2017-Oct-07 22:00N 40°30' W 073°41'0 0.0
2017-Oct-07 21:30N 40°30' W 073°41'0 0.0
2017-Oct-07 21:00N 40°30' W 073°41'0 0.0
2017-Oct-07 20:30N 40°30' W 073°41'1 1.2
2017-Oct-07 19:57N 40°30' W 073°42'511.9
2017-Oct-07 19:30N 40°28' W 073°48'5 9.9
2017-Oct-07 19:00N 40°27' W 073°55'510.9
2017-Oct-07 18:30N 40°29' W 074°01'710.7
2017-Oct-07 17:51N 40°30' W 074°10'4 4.7
2017-Oct-07 16:56N 40°32' W 074°15'0 0.3
2017-Oct-07 16:30N 40°32' W 074°15'  

Dump ship's entire track history